sensor_id;sensor_type;location;lat;lon;timestamp;temperature;humidity
13052;DHT22;6592;47.484;9.726;2023-05-17T00:00:54;10.60;99.90
13052;DHT22;6592;47.484;9.726;2023-05-17T00:03:22;10.60;99.90
13052;DHT22;6592;47.484;9.726;2023-05-17T00:05:50;10.60;99.90
13052;DHT22;6592;47.484;9.726;2023-05-17T00:08:19;10.60;99.90
13052;DHT22;6592;47.484;9.726;2023-05-17T00:10:48;10.60;99.90
13052;DHT22;6592;47.484;9.726;2023-05-17T00:13:16;10.60;99.90
13052;DHT22;6592;47.484;9.726;2023-05-17T00:15:45;10.60;99.90
13052;DHT22;6592;47.484;9.726;2023-05-17T00:18:13;10.50;99.90
13052;DHT22;6592;47.484;9.726;2023-05-17T00:20:42;10.50;99.90
13052;DHT22;6592;47.484;9.726;2023-05-17T00:23:10;10.50;99.90
13052;DHT22;6592;47.484;9.726;2023-05-17T00:25:38;10.40;99.90
13052;DHT22;6592;47.484;9.726;2023-05-17T00:28:08;10.50;99.90
13052;DHT22;6592;47.484;9.726;2023-05-17T00:30:36;10.50;99.90
13052;DHT22;6592;47.484;9.726;2023-05-17T00:33:04;10.50;99.90
13052;DHT22;6592;47.484;9.726;2023-05-17T00:35:33;10.50;99.90
13052;DHT22;6592;47.484;9.726;2023-05-17T00:38:01;10.50;99.90
13052;DHT22;6592;47.484;9.726;2023-05-17T00:40:30;10.60;99.90
13052;DHT22;6592;47.484;9.726;2023-05-17T00:42:58;10.60;99.90
13052;DHT22;6592;47.484;9.726;2023-05-17T00:45:28;10.60;99.90
13052;DHT22;6592;47.484;9.726;2023-05-17T00:47:56;10.60;99.90
13052;DHT22;6592;47.484;9.726;2023-05-17T00:50:24;10.60;99.90
13052;DHT22;6592;47.484;9.726;2023-05-17T00:52:53;10.60;99.90
13052;DHT22;6592;47.484;9.726;2023-05-17T00:55:22;10.60;99.90
13052;DHT22;6592;47.484;9.726;2023-05-17T00:57:50;10.50;99.90
13052;DHT22;6592;47.484;9.726;2023-05-17T01:00:19;10.30;99.90
13052;DHT22;6592;47.484;9.726;2023-05-17T01:02:48;10.70;99.90
13052;DHT22;6592;47.484;9.726;2023-05-17T01:05:17;10.50;99.90
13052;DHT22;6592;47.484;9.726;2023-05-17T01:07:45;10.50;99.90
13052;DHT22;6592;47.484;9.726;2023-05-17T01:10:14;10.50;99.90
13052;DHT22;6592;47.484;9.726;2023-05-17T01:12:53;10.50;99.90
13052;DHT22;6592;47.484;9.726;2023-05-17T01:15:25;10.50;99.90
13052;DHT22;6592;47.484;9.726;2023-05-17T01:18:04;10.40;99.90
13052;DHT22;6592;47.484;9.726;2023-05-17T01:20:37;10.30;99.90
13052;DHT22;6592;47.484;9.726;2023-05-17T01:23:24;10.20;99.90
13052;DHT22;6592;47.484;9.726;2023-05-17T01:26:03;10.00;99.90
13052;DHT22;6592;47.484;9.726;2023-05-17T01:28:33;10.10;99.90
13052;DHT22;6592;47.484;9.726;2023-05-17T01:31:03;10.20;99.90
13052;DHT22;6592;47.484;9.726;2023-05-17T01:33:33;10.20;99.90
13052;DHT22;6592;47.484;9.726;2023-05-17T01:36:01;10.20;99.90
13052;DHT22;6592;47.484;9.726;2023-05-17T01:38:29;10.20;99.90
13052;DHT22;6592;47.484;9.726;2023-05-17T01:41:02;10.30;99.90
13052;DHT22;6592;47.484;9.726;2023-05-17T01:43:41;10.30;99.90
13052;DHT22;6592;47.484;9.726;2023-05-17T01:46:15;10.20;99.90
13052;DHT22;6592;47.484;9.726;2023-05-17T01:48:50;10.20;99.90
13052;DHT22;6592;47.484;9.726;2023-05-17T01:51:22;10.20;99.90
13052;DHT22;6592;47.484;9.726;2023-05-17T01:53:59;10.20;99.90
13052;DHT22;6592;47.484;9.726;2023-05-17T01:56:33;10.20;99.90
13052;DHT22;6592;47.484;9.726;2023-05-17T01:59:05;10.20;99.90
13052;DHT22;6592;47.484;9.726;2023-05-17T02:01:34;10.20;99.90
13052;DHT22;6592;47.484;9.726;2023-05-17T02:04:03;10.20;99.90
13052;DHT22;6592;47.484;9.726;2023-05-17T02:06:31;10.10;99.90
13052;DHT22;6592;47.484;9.726;2023-05-17T02:09:00;10.10;99.90
13052;DHT22;6592;47.484;9.726;2023-05-17T02:11:29;10.10;99.90
13052;DHT22;6592;47.484;9.726;2023-05-17T02:13:58;10.10;99.90
13052;DHT22;6592;47.484;9.726;2023-05-17T02:16:27;10.10;99.90
13052;DHT22;6592;47.484;9.726;2023-05-17T02:18:56;10.10;99.90
13052;DHT22;6592;47.484;9.726;2023-05-17T02:21:24;10.10;99.90
13052;DHT22;6592;47.484;9.726;2023-05-17T02:23:52;10.10;99.90
13052;DHT22;6592;47.484;9.726;2023-05-17T02:26:20;10.10;99.90
13052;DHT22;6592;47.484;9.726;2023-05-17T02:28:48;10.00;99.90
13052;DHT22;6592;47.484;9.726;2023-05-17T02:31:17;10.00;99.90
13052;DHT22;6592;47.484;9.726;2023-05-17T02:33:46;10.00;99.90
13052;DHT22;6592;47.484;9.726;2023-05-17T02:36:15;10.10;99.90
13052;DHT22;6592;47.484;9.726;2023-05-17T02:38:43;10.00;99.90
13052;DHT22;6592;47.484;9.726;2023-05-17T02:41:11;10.00;99.90
13052;DHT22;6592;47.484;9.726;2023-05-17T02:43:39;10.00;99.90
13052;DHT22;6592;47.484;9.726;2023-05-17T02:46:08;10.00;99.90
13052;DHT22;6592;47.484;9.726;2023-05-17T02:48:36;10.00;99.90
13052;DHT22;6592;47.484;9.726;2023-05-17T02:51:06;10.00;99.90
13052;DHT22;6592;47.484;9.726;2023-05-17T02:53:34;9.80;99.90
13052;DHT22;6592;47.484;9.726;2023-05-17T02:56:02;9.80;99.90
13052;DHT22;6592;47.484;9.726;2023-05-17T02:58:30;9.70;99.90
13052;DHT22;6592;47.484;9.726;2023-05-17T03:00:59;9.60;99.90
13052;DHT22;6592;47.484;9.726;2023-05-17T03:03:27;9.60;99.90
13052;DHT22;6592;47.484;9.726;2023-05-17T03:05:59;9.60;99.90
13052;DHT22;6592;47.484;9.726;2023-05-17T03:08:29;9.70;99.90
13052;DHT22;6592;47.484;9.726;2023-05-17T03:10:58;9.70;99.90
13052;DHT22;6592;47.484;9.726;2023-05-17T03:13:26;9.70;99.90
13052;DHT22;6592;47.484;9.726;2023-05-17T03:15:54;9.70;99.90
13052;DHT22;6592;47.484;9.726;2023-05-17T03:18:23;9.60;99.90
13052;DHT22;6592;47.484;9.726;2023-05-17T03:20:51;9.60;99.90
13052;DHT22;6592;47.484;9.726;2023-05-17T03:23:19;9.50;99.90
13052;DHT22;6592;47.484;9.726;2023-05-17T03:25:49;9.50;99.90
13052;DHT22;6592;47.484;9.726;2023-05-17T03:28:17;9.50;99.90
13052;DHT22;6592;47.484;9.726;2023-05-17T03:30:46;9.50;99.90
13052;DHT22;6592;47.484;9.726;2023-05-17T03:33:14;9.50;99.90
13052;DHT22;6592;47.484;9.726;2023-05-17T03:35:43;9.50;99.90
13052;DHT22;6592;47.484;9.726;2023-05-17T03:38:12;9.50;99.90
13052;DHT22;6592;47.484;9.726;2023-05-17T03:40:40;9.50;99.90
13052;DHT22;6592;47.484;9.726;2023-05-17T03:43:10;9.50;99.90
13052;DHT22;6592;47.484;9.726;2023-05-17T03:45:39;9.50;99.90
13052;DHT22;6592;47.484;9.726;2023-05-17T03:48:07;9.50;99.90
13052;DHT22;6592;47.484;9.726;2023-05-17T03:50:35;9.40;99.90
13052;DHT22;6592;47.484;9.726;2023-05-17T03:53:04;9.40;99.90
13052;DHT22;6592;47.484;9.726;2023-05-17T03:55:33;9.30;99.90
13052;DHT22;6592;47.484;9.726;2023-05-17T03:58:01;9.30;99.90
13052;DHT22;6592;47.484;9.726;2023-05-17T04:00:31;9.30;99.90
13052;DHT22;6592;47.484;9.726;2023-05-17T04:02:59;9.40;99.90
13052;DHT22;6592;47.484;9.726;2023-05-17T04:05:27;9.40;99.90
13052;DHT22;6592;47.484;9.726;2023-05-17T04:07:56;9.50;99.90
13052;DHT22;6592;47.484;9.726;2023-05-17T04:10:24;9.40;99.90
13052;DHT22;6592;47.484;9.726;2023-05-17T04:12:53;9.50;99.90
13052;DHT22;6592;47.484;9.726;2023-05-17T04:15:21;9.40;99.90
13052;DHT22;6592;47.484;9.726;2023-05-17T04:17:50;9.50;99.90
13052;DHT22;6592;47.484;9.726;2023-05-17T04:20:19;9.50;99.90
13052;DHT22;6592;47.484;9.726;2023-05-17T04:22:47;9.50;99.90
13052;DHT22;6592;47.484;9.726;2023-05-17T04:25:16;9.50;99.90
13052;DHT22;6592;47.484;9.726;2023-05-17T04:27:44;9.50;99.90
13052;DHT22;6592;47.484;9.726;2023-05-17T04:30:13;9.60;99.90
13052;DHT22;6592;47.484;9.726;2023-05-17T04:32:41;9.60;99.90
13052;DHT22;6592;47.484;9.726;2023-05-17T04:35:11;9.60;99.90
13052;DHT22;6592;47.484;9.726;2023-05-17T04:37:40;9.60;99.90
13052;DHT22;6592;47.484;9.726;2023-05-17T04:40:09;9.60;99.90
13052;DHT22;6592;47.484;9.726;2023-05-17T04:42:38;9.60;99.90
13052;DHT22;6592;47.484;9.726;2023-05-17T04:45:07;9.60;99.90
13052;DHT22;6592;47.484;9.726;2023-05-17T04:47:36;9.60;99.90
13052;DHT22;6592;47.484;9.726;2023-05-17T04:50:04;9.70;99.90
13052;DHT22;6592;47.484;9.726;2023-05-17T04:52:34;9.70;99.90
13052;DHT22;6592;47.484;9.726;2023-05-17T04:55:03;9.60;99.90
13052;DHT22;6592;47.484;9.726;2023-05-17T04:57:32;9.60;99.90
13052;DHT22;6592;47.484;9.726;2023-05-17T05:00:02;9.50;99.90
13052;DHT22;6592;47.484;9.726;2023-05-17T05:02:32;9.50;99.90
13052;DHT22;6592;47.484;9.726;2023-05-17T05:05:01;9.60;99.90
13052;DHT22;6592;47.484;9.726;2023-05-17T05:07:30;9.60;99.90
13052;DHT22;6592;47.484;9.726;2023-05-17T05:10:00;9.60;99.90
13052;DHT22;6592;47.484;9.726;2023-05-17T05:12:28;9.60;99.90
13052;DHT22;6592;47.484;9.726;2023-05-17T05:14:56;9.60;99.90
13052;DHT22;6592;47.484;9.726;2023-05-17T05:17:27;9.70;99.90
13052;DHT22;6592;47.484;9.726;2023-05-17T05:19:56;9.80;99.90
13052;DHT22;6592;47.484;9.726;2023-05-17T05:22:25;9.80;99.90
13052;DHT22;6592;47.484;9.726;2023-05-17T05:24:53;9.80;99.90
13052;DHT22;6592;47.484;9.726;2023-05-17T05:27:23;9.80;99.90
13052;DHT22;6592;47.484;9.726;2023-05-17T05:29:53;9.80;99.90
13052;DHT22;6592;47.484;9.726;2023-05-17T05:32:21;9.90;99.90
13052;DHT22;6592;47.484;9.726;2023-05-17T05:34:49;9.90;99.90
13052;DHT22;6592;47.484;9.726;2023-05-17T05:37:17;9.90;99.90
13052;DHT22;6592;47.484;9.726;2023-05-17T05:39:46;10.00;99.90
13052;DHT22;6592;47.484;9.726;2023-05-17T05:42:14;10.10;99.90
13052;DHT22;6592;47.484;9.726;2023-05-17T05:44:44;10.10;99.90
13052;DHT22;6592;47.484;9.726;2023-05-17T05:47:12;10.10;99.90
13052;DHT22;6592;47.484;9.726;2023-05-17T05:49:40;10.20;99.90
13052;DHT22;6592;47.484;9.726;2023-05-17T05:52:08;10.30;99.90
13052;DHT22;6592;47.484;9.726;2023-05-17T05:54:37;10.40;99.90
13052;DHT22;6592;47.484;9.726;2023-05-17T05:57:05;10.40;99.90
13052;DHT22;6592;47.484;9.726;2023-05-17T05:59:33;10.40;99.90
13052;DHT22;6592;47.484;9.726;2023-05-17T06:02:03;10.50;99.90
13052;DHT22;6592;47.484;9.726;2023-05-17T06:04:31;10.70;99.90
13052;DHT22;6592;47.484;9.726;2023-05-17T06:07:11;10.70;99.90
13052;DHT22;6592;47.484;9.726;2023-05-17T06:09:40;10.90;99.90
13052;DHT22;6592;47.484;9.726;2023-05-17T06:12:08;11.00;99.90
13052;DHT22;6592;47.484;9.726;2023-05-17T06:14:37;11.00;99.90
13052;DHT22;6592;47.484;9.726;2023-05-17T06:17:07;11.10;99.90
13052;DHT22;6592;47.484;9.726;2023-05-17T06:19:35;11.20;99.90
13052;DHT22;6592;47.484;9.726;2023-05-17T06:22:04;11.40;99.90
13052;DHT22;6592;47.484;9.726;2023-05-17T06:24:32;11.60;99.90
13052;DHT22;6592;47.484;9.726;2023-05-17T06:27:00;11.70;99.90
13052;DHT22;6592;47.484;9.726;2023-05-17T06:29:28;11.80;99.90
13052;DHT22;6592;47.484;9.726;2023-05-17T06:31:57;11.90;99.90
13052;DHT22;6592;47.484;9.726;2023-05-17T06:34:27;12.00;99.90
13052;DHT22;6592;47.484;9.726;2023-05-17T06:36:55;12.10;99.90
13052;DHT22;6592;47.484;9.726;2023-05-17T06:39:23;12.20;99.90
13052;DHT22;6592;47.484;9.726;2023-05-17T06:41:51;12.30;99.90
13052;DHT22;6592;47.484;9.726;2023-05-17T06:44:19;12.40;99.90
13052;DHT22;6592;47.484;9.726;2023-05-17T06:46:48;12.80;99.90
13052;DHT22;6592;47.484;9.726;2023-05-17T06:49:16;13.20;99.90
13052;DHT22;6592;47.484;9.726;2023-05-17T06:51:46;13.50;99.90
13052;DHT22;6592;47.484;9.726;2023-05-17T06:54:14;13.90;99.90
13052;DHT22;6592;47.484;9.726;2023-05-17T06:56:45;14.30;99.90
13052;DHT22;6592;47.484;9.726;2023-05-17T06:59:13;14.60;99.90
13052;DHT22;6592;47.484;9.726;2023-05-17T07:01:42;14.90;99.90
13052;DHT22;6592;47.484;9.726;2023-05-17T07:04:10;15.10;99.90
13052;DHT22;6592;47.484;9.726;2023-05-17T07:06:39;15.50;99.90
13052;DHT22;6592;47.484;9.726;2023-05-17T07:09:11;16.20;99.90
13052;DHT22;6592;47.484;9.726;2023-05-17T07:11:40;16.80;99.90
13052;DHT22;6592;47.484;9.726;2023-05-17T07:14:08;17.80;99.90
13052;DHT22;6592;47.484;9.726;2023-05-17T07:16:36;18.20;99.90
13052;DHT22;6592;47.484;9.726;2023-05-17T07:19:04;18.50;99.90
13052;DHT22;6592;47.484;9.726;2023-05-17T07:21:33;18.50;99.90
13052;DHT22;6592;47.484;9.726;2023-05-17T07:24:01;18.60;99.90
13052;DHT22;6592;47.484;9.726;2023-05-17T07:26:31;18.70;99.90
13052;DHT22;6592;47.484;9.726;2023-05-17T07:28:59;18.90;99.90
13052;DHT22;6592;47.484;9.726;2023-05-17T07:31:27;19.10;99.90
13052;DHT22;6592;47.484;9.726;2023-05-17T07:33:56;18.80;99.90
13052;DHT22;6592;47.484;9.726;2023-05-17T07:36:24;18.40;99.90
13052;DHT22;6592;47.484;9.726;2023-05-17T07:38:56;17.90;99.90
13052;DHT22;6592;47.484;9.726;2023-05-17T07:41:24;17.60;99.90
13052;DHT22;6592;47.484;9.726;2023-05-17T07:43:54;17.20;99.90
13052;DHT22;6592;47.484;9.726;2023-05-17T07:46:22;16.70;99.90
13052;DHT22;6592;47.484;9.726;2023-05-17T07:48:50;16.40;99.90
13052;DHT22;6592;47.484;9.726;2023-05-17T07:51:23;16.20;99.90
13052;DHT22;6592;47.484;9.726;2023-05-17T07:53:51;16.00;99.90
13052;DHT22;6592;47.484;9.726;2023-05-17T07:56:19;15.70;99.90
13052;DHT22;6592;47.484;9.726;2023-05-17T07:58:47;15.50;99.90
13052;DHT22;6592;47.484;9.726;2023-05-17T08:01:18;15.30;99.90
13052;DHT22;6592;47.484;9.726;2023-05-17T08:03:46;15.00;99.90
13052;DHT22;6592;47.484;9.726;2023-05-17T08:06:14;14.70;99.90
13052;DHT22;6592;47.484;9.726;2023-05-17T08:08:43;14.50;99.90
13052;DHT22;6592;47.484;9.726;2023-05-17T08:11:12;14.30;99.90
13052;DHT22;6592;47.484;9.726;2023-05-17T08:13:41;14.20;99.90
13052;DHT22;6592;47.484;9.726;2023-05-17T08:16:10;14.10;99.90
13052;DHT22;6592;47.484;9.726;2023-05-17T08:18:42;14.00;99.90
13052;DHT22;6592;47.484;9.726;2023-05-17T08:21:10;14.00;99.90
13052;DHT22;6592;47.484;9.726;2023-05-17T08:23:39;13.90;99.90
13052;DHT22;6592;47.484;9.726;2023-05-17T08:26:08;14.00;99.90
13052;DHT22;6592;47.484;9.726;2023-05-17T08:28:38;13.90;99.90
13052;DHT22;6592;47.484;9.726;2023-05-17T08:31:06;14.00;99.90
13052;DHT22;6592;47.484;9.726;2023-05-17T08:33:34;14.20;99.90
13052;DHT22;6592;47.484;9.726;2023-05-17T08:36:04;14.30;99.90
13052;DHT22;6592;47.484;9.726;2023-05-17T08:38:34;14.30;99.90
13052;DHT22;6592;47.484;9.726;2023-05-17T08:41:03;14.50;99.90
13052;DHT22;6592;47.484;9.726;2023-05-17T08:43:31;14.60;99.90
13052;DHT22;6592;47.484;9.726;2023-05-17T08:46:00;14.60;99.90
13052;DHT22;6592;47.484;9.726;2023-05-17T08:48:30;14.60;99.90
13052;DHT22;6592;47.484;9.726;2023-05-17T08:50:59;14.70;99.90
13052;DHT22;6592;47.484;9.726;2023-05-17T08:53:28;14.70;99.90
13052;DHT22;6592;47.484;9.726;2023-05-17T08:55:58;14.60;99.90
13052;DHT22;6592;47.484;9.726;2023-05-17T08:58:33;14.60;99.90
13052;DHT22;6592;47.484;9.726;2023-05-17T09:01:21;14.50;99.90
13052;DHT22;6592;47.484;9.726;2023-05-17T09:03:53;14.60;99.90
13052;DHT22;6592;47.484;9.726;2023-05-17T09:06:22;14.60;99.90
13052;DHT22;6592;47.484;9.726;2023-05-17T09:08:53;14.70;99.90
13052;DHT22;6592;47.484;9.726;2023-05-17T09:11:26;14.70;99.90
13052;DHT22;6592;47.484;9.726;2023-05-17T09:13:58;14.70;99.90
13052;DHT22;6592;47.484;9.726;2023-05-17T09:16:27;14.60;99.90
13052;DHT22;6592;47.484;9.726;2023-05-17T09:18:57;14.70;99.90
13052;DHT22;6592;47.484;9.726;2023-05-17T09:21:26;14.90;99.90
13052;DHT22;6592;47.484;9.726;2023-05-17T09:23:58;15.10;99.90
13052;DHT22;6592;47.484;9.726;2023-05-17T09:26:39;15.30;99.90
13052;DHT22;6592;47.484;9.726;2023-05-17T09:29:08;15.50;99.90
13052;DHT22;6592;47.484;9.726;2023-05-17T09:31:37;15.70;99.90
13052;DHT22;6592;47.484;9.726;2023-05-17T09:34:06;15.80;99.90
13052;DHT22;6592;47.484;9.726;2023-05-17T09:36:36;15.80;99.90
13052;DHT22;6592;47.484;9.726;2023-05-17T09:39:07;16.00;99.90
13052;DHT22;6592;47.484;9.726;2023-05-17T09:41:41;16.10;99.90
13052;DHT22;6592;47.484;9.726;2023-05-17T09:44:12;16.00;99.90
13052;DHT22;6592;47.484;9.726;2023-05-17T09:46:42;16.00;99.90
13052;DHT22;6592;47.484;9.726;2023-05-17T09:49:11;16.20;99.90
13052;DHT22;6592;47.484;9.726;2023-05-17T09:51:41;16.30;99.90
13052;DHT22;6592;47.484;9.726;2023-05-17T09:54:11;16.50;99.90
13052;DHT22;6592;47.484;9.726;2023-05-17T09:56:40;16.40;99.90
13052;DHT22;6592;47.484;9.726;2023-05-17T09:59:12;16.50;99.90
13052;DHT22;6592;47.484;9.726;2023-05-17T10:01:43;16.60;99.90
13052;DHT22;6592;47.484;9.726;2023-05-17T10:04:12;16.80;99.90
13052;DHT22;6592;47.484;9.726;2023-05-17T10:06:46;16.90;99.90
13052;DHT22;6592;47.484;9.726;2023-05-17T10:09:21;17.10;99.90
13052;DHT22;6592;47.484;9.726;2023-05-17T10:11:49;17.20;99.90
13052;DHT22;6592;47.484;9.726;2023-05-17T10:14:23;17.50;99.90
13052;DHT22;6592;47.484;9.726;2023-05-17T10:16:54;18.00;99.90
13052;DHT22;6592;47.484;9.726;2023-05-17T10:19:24;18.40;99.90
13052;DHT22;6592;47.484;9.726;2023-05-17T10:21:53;18.70;99.90
13052;DHT22;6592;47.484;9.726;2023-05-17T10:24:35;18.60;99.90
13052;DHT22;6592;47.484;9.726;2023-05-17T10:27:05;18.60;99.90
13052;DHT22;6592;47.484;9.726;2023-05-17T10:29:35;18.60;99.90
13052;DHT22;6592;47.484;9.726;2023-05-17T10:32:06;18.50;99.90
13052;DHT22;6592;47.484;9.726;2023-05-17T10:34:36;18.50;99.90
13052;DHT22;6592;47.484;9.726;2023-05-17T10:37:04;18.10;99.90
13052;DHT22;6592;47.484;9.726;2023-05-17T10:39:35;18.10;99.90
13052;DHT22;6592;47.484;9.726;2023-05-17T10:42:06;17.90;99.90
13052;DHT22;6592;47.484;9.726;2023-05-17T10:44:38;17.90;99.90
13052;DHT22;6592;47.484;9.726;2023-05-17T10:47:07;17.60;99.90
13052;DHT22;6592;47.484;9.726;2023-05-17T10:49:36;17.50;99.90
13052;DHT22;6592;47.484;9.726;2023-05-17T10:52:11;17.50;99.90
13052;DHT22;6592;47.484;9.726;2023-05-17T10:54:42;17.30;99.90
13052;DHT22;6592;47.484;9.726;2023-05-17T10:57:19;17.00;99.90
13052;DHT22;6592;47.484;9.726;2023-05-17T10:59:58;16.90;99.90
13052;DHT22;6592;47.484;9.726;2023-05-17T11:02:28;17.00;99.90
13052;DHT22;6592;47.484;9.726;2023-05-17T11:04:58;17.10;99.90
13052;DHT22;6592;47.484;9.726;2023-05-17T11:07:29;17.20;99.90
13052;DHT22;6592;47.484;9.726;2023-05-17T11:10:09;17.50;99.90
13052;DHT22;6592;47.484;9.726;2023-05-17T11:12:38;17.60;99.90
13052;DHT22;6592;47.484;9.726;2023-05-17T11:15:09;17.90;99.90
13052;DHT22;6592;47.484;9.726;2023-05-17T11:17:49;18.00;99.90
13052;DHT22;6592;47.484;9.726;2023-05-17T11:20:31;18.10;99.90
13052;DHT22;6592;47.484;9.726;2023-05-17T11:23:02;18.00;99.90
13052;DHT22;6592;47.484;9.726;2023-05-17T11:25:34;18.00;99.90
13052;DHT22;6592;47.484;9.726;2023-05-17T11:28:07;18.10;99.90
13052;DHT22;6592;47.484;9.726;2023-05-17T11:30:40;18.40;99.90
13052;DHT22;6592;47.484;9.726;2023-05-17T11:33:09;18.40;99.90
13052;DHT22;6592;47.484;9.726;2023-05-17T11:35:55;18.50;99.90
13052;DHT22;6592;47.484;9.726;2023-05-17T11:38:26;18.60;99.90
13052;DHT22;6592;47.484;9.726;2023-05-17T11:40:57;18.50;99.90
13052;DHT22;6592;47.484;9.726;2023-05-17T11:43:53;18.30;99.90
13052;DHT22;6592;47.484;9.726;2023-05-17T11:46:22;18.10;99.90
13052;DHT22;6592;47.484;9.726;2023-05-17T11:48:51;18.20;99.90
13052;DHT22;6592;47.484;9.726;2023-05-17T11:51:20;18.20;99.90
13052;DHT22;6592;47.484;9.726;2023-05-17T11:53:53;17.90;99.90
13052;DHT22;6592;47.484;9.726;2023-05-17T11:56:24;17.70;99.90
13052;DHT22;6592;47.484;9.726;2023-05-17T11:59:09;17.60;99.90
13052;DHT22;6592;47.484;9.726;2023-05-17T12:01:44;17.50;99.90
13052;DHT22;6592;47.484;9.726;2023-05-17T12:04:13;17.00;99.90
13052;DHT22;6592;47.484;9.726;2023-05-17T12:06:43;16.90;99.90
13052;DHT22;6592;47.484;9.726;2023-05-17T12:09:14;16.90;99.90
13052;DHT22;6592;47.484;9.726;2023-05-17T12:11:44;16.70;99.90
13052;DHT22;6592;47.484;9.726;2023-05-17T12:14:14;16.50;99.90
13052;DHT22;6592;47.484;9.726;2023-05-17T12:16:44;16.50;99.90
13052;DHT22;6592;47.484;9.726;2023-05-17T12:19:17;16.80;99.90
13052;DHT22;6592;47.484;9.726;2023-05-17T12:21:46;17.00;99.90
13052;DHT22;6592;47.484;9.726;2023-05-17T12:24:15;17.30;99.90
13052;DHT22;6592;47.484;9.726;2023-05-17T12:26:45;17.50;99.90
13052;DHT22;6592;47.484;9.726;2023-05-17T12:29:17;17.60;99.90
13052;DHT22;6592;47.484;9.726;2023-05-17T12:31:49;17.80;99.90
13052;DHT22;6592;47.484;9.726;2023-05-17T12:34:19;17.90;99.90
13052;DHT22;6592;47.484;9.726;2023-05-17T12:36:48;18.20;99.90
13052;DHT22;6592;47.484;9.726;2023-05-17T12:39:16;18.30;99.90
13052;DHT22;6592;47.484;9.726;2023-05-17T12:41:51;18.60;99.90
13052;DHT22;6592;47.484;9.726;2023-05-17T12:44:19;18.70;99.90
13052;DHT22;6592;47.484;9.726;2023-05-17T12:46:48;18.80;99.90
13052;DHT22;6592;47.484;9.726;2023-05-17T12:49:20;18.60;99.90
13052;DHT22;6592;47.484;9.726;2023-05-17T12:51:49;18.50;99.90
13052;DHT22;6592;47.484;9.726;2023-05-17T12:54:27;18.50;99.90
13052;DHT22;6592;47.484;9.726;2023-05-17T12:56:57;18.60;99.90
13052;DHT22;6592;47.484;9.726;2023-05-17T12:59:25;18.40;99.90
13052;DHT22;6592;47.484;9.726;2023-05-17T13:01:56;18.20;99.90
13052;DHT22;6592;47.484;9.726;2023-05-17T13:04:30;18.10;99.90
13052;DHT22;6592;47.484;9.726;2023-05-17T13:07:00;18.20;99.90
13052;DHT22;6592;47.484;9.726;2023-05-17T13:09:30;18.30;99.90
13052;DHT22;6592;47.484;9.726;2023-05-17T13:12:01;18.40;99.90
13052;DHT22;6592;47.484;9.726;2023-05-17T13:14:32;18.30;99.90
13052;DHT22;6592;47.484;9.726;2023-05-17T13:17:02;18.30;99.90
13052;DHT22;6592;47.484;9.726;2023-05-17T13:19:30;18.10;99.90
13052;DHT22;6592;47.484;9.726;2023-05-17T13:21:59;17.90;99.90
13052;DHT22;6592;47.484;9.726;2023-05-17T13:24:29;17.70;99.90
13052;DHT22;6592;47.484;9.726;2023-05-17T13:26:59;17.90;99.90
13052;DHT22;6592;47.484;9.726;2023-05-17T13:29:27;17.60;99.90
13052;DHT22;6592;47.484;9.726;2023-05-17T13:32:06;17.40;99.90
13052;DHT22;6592;47.484;9.726;2023-05-17T13:34:35;17.50;99.90
13052;DHT22;6592;47.484;9.726;2023-05-17T13:37:04;17.60;99.90
13052;DHT22;6592;47.484;9.726;2023-05-17T13:39:37;17.90;99.90
13052;DHT22;6592;47.484;9.726;2023-05-17T13:42:07;18.00;99.90
13052;DHT22;6592;47.484;9.726;2023-05-17T13:44:35;17.90;99.90
13052;DHT22;6592;47.484;9.726;2023-05-17T13:47:04;17.90;99.90
13052;DHT22;6592;47.484;9.726;2023-05-17T13:49:32;18.00;99.90
13052;DHT22;6592;47.484;9.726;2023-05-17T13:52:01;18.10;99.90
13052;DHT22;6592;47.484;9.726;2023-05-17T13:54:29;18.30;99.90
13052;DHT22;6592;47.484;9.726;2023-05-17T13:56:58;18.50;99.90
13052;DHT22;6592;47.484;9.726;2023-05-17T13:59:27;18.60;99.90
13052;DHT22;6592;47.484;9.726;2023-05-17T14:01:55;18.80;99.90
13052;DHT22;6592;47.484;9.726;2023-05-17T14:04:24;18.70;99.90
13052;DHT22;6592;47.484;9.726;2023-05-17T14:06:52;18.70;99.90
13052;DHT22;6592;47.484;9.726;2023-05-17T14:09:21;18.80;99.90
13052;DHT22;6592;47.484;9.726;2023-05-17T14:11:49;18.80;99.90
13052;DHT22;6592;47.484;9.726;2023-05-17T14:14:17;18.80;99.90
13052;DHT22;6592;47.484;9.726;2023-05-17T14:16:47;18.70;99.90
13052;DHT22;6592;47.484;9.726;2023-05-17T14:19:15;18.70;99.90
13052;DHT22;6592;47.484;9.726;2023-05-17T14:21:43;18.70;99.90
13052;DHT22;6592;47.484;9.726;2023-05-17T14:24:12;18.60;99.90
13052;DHT22;6592;47.484;9.726;2023-05-17T14:26:40;18.60;99.90
13052;DHT22;6592;47.484;9.726;2023-05-17T14:29:08;18.60;99.90
13052;DHT22;6592;47.484;9.726;2023-05-17T14:31:37;18.60;99.90
13052;DHT22;6592;47.484;9.726;2023-05-17T14:34:06;18.50;99.90
13052;DHT22;6592;47.484;9.726;2023-05-17T14:36:35;18.40;99.90
13052;DHT22;6592;47.484;9.726;2023-05-17T14:39:04;18.20;99.90
13052;DHT22;6592;47.484;9.726;2023-05-17T14:41:32;18.00;99.90
13052;DHT22;6592;47.484;9.726;2023-05-17T14:44:00;17.90;99.90
13052;DHT22;6592;47.484;9.726;2023-05-17T14:46:28;17.80;99.90
13052;DHT22;6592;47.484;9.726;2023-05-17T14:48:57;17.70;99.90
13052;DHT22;6592;47.484;9.726;2023-05-17T14:51:27;17.60;99.90
13052;DHT22;6592;47.484;9.726;2023-05-17T14:53:55;17.50;99.90
13052;DHT22;6592;47.484;9.726;2023-05-17T14:56:23;17.40;99.90
13052;DHT22;6592;47.484;9.726;2023-05-17T14:58:52;17.30;99.90
13052;DHT22;6592;47.484;9.726;2023-05-17T15:01:20;17.40;99.90
13052;DHT22;6592;47.484;9.726;2023-05-17T15:03:49;17.40;99.90
13052;DHT22;6592;47.484;9.726;2023-05-17T15:06:17;17.50;99.90
13052;DHT22;6592;47.484;9.726;2023-05-17T15:08:51;17.50;99.90
13052;DHT22;6592;47.484;9.726;2023-05-17T15:11:20;17.40;99.90
13052;DHT22;6592;47.484;9.726;2023-05-17T15:13:49;17.40;99.90
13052;DHT22;6592;47.484;9.726;2023-05-17T15:16:17;17.40;99.90
13052;DHT22;6592;47.484;9.726;2023-05-17T15:18:47;17.50;99.90
13052;DHT22;6592;47.484;9.726;2023-05-17T15:21:15;17.60;99.90
13052;DHT22;6592;47.484;9.726;2023-05-17T15:23:46;17.70;99.90
13052;DHT22;6592;47.484;9.726;2023-05-17T15:26:17;17.80;99.90
13052;DHT22;6592;47.484;9.726;2023-05-17T15:28:46;17.70;99.90
13052;DHT22;6592;47.484;9.726;2023-05-17T15:31:15;17.60;99.90
13052;DHT22;6592;47.484;9.726;2023-05-17T15:33:47;17.40;99.90
13052;DHT22;6592;47.484;9.726;2023-05-17T15:36:15;17.20;99.90
13052;DHT22;6592;47.484;9.726;2023-05-17T15:38:43;17.20;99.90
13052;DHT22;6592;47.484;9.726;2023-05-17T15:41:13;17.10;99.90
13052;DHT22;6592;47.484;9.726;2023-05-17T15:43:43;17.00;99.90
13052;DHT22;6592;47.484;9.726;2023-05-17T15:46:12;16.80;99.90
13052;DHT22;6592;47.484;9.726;2023-05-17T15:48:40;16.60;99.90
13052;DHT22;6592;47.484;9.726;2023-05-17T15:51:08;16.50;99.90
13052;DHT22;6592;47.484;9.726;2023-05-17T15:53:37;16.60;99.90
13052;DHT22;6592;47.484;9.726;2023-05-17T15:56:06;16.60;99.90
13052;DHT22;6592;47.484;9.726;2023-05-17T15:58:36;16.40;99.90
13052;DHT22;6592;47.484;9.726;2023-05-17T16:01:05;16.30;99.90
13052;DHT22;6592;47.484;9.726;2023-05-17T16:03:34;16.30;99.90
13052;DHT22;6592;47.484;9.726;2023-05-17T16:06:03;16.40;99.90